Ridgeview, WV (25169)

05:42 PM EST del 19 Dicembre 2014 (GMT -0500)
APRSWXNET Comfort WV US | Change Station
CLOSE
Current Station
Stazione meteo personale
Location: Bloomingrose, WV
Altitudine: 692 ft
Stazioni meteo nelle vicinanze

Alt. 692 ft 38.13 °N, 81.63 °W | Updated 49 minutes ago

Coperto
Coperto
32 °F
Sembra 32 °F
N
0
Vento Variabile Vento da NNO
Gusts 1.0 mph

Oggi
Massima -- | Minima -- °F
--% Possibilità di precip.
Ieri
Massima -- | Minima -- °F
Precip. -- in
7:38 AM 5:09 PM
Luna calante, 6% visible
Pressione 30.29 in
Visibilità 7.0 miglia
Nuvole Coperto 2300 ft
Raffreddamento del vento 32 °F
Punto di rugiada 24 °F
Umidità 72%
Piovosità 0.00 in
Spessore del manto nevoso Non disponibile.
Raggi UV 0 fuori da 12
Polline .10 fuori da 12
Qualità dell'aria Non disponibile.
Flu Activity Non disponibile.
METAR KCRW 192154Z 00000KT 7SM OVC023 M01/M06 A3026 RMK AO2 SNE47 PRESRR SLP257 P0000 T10061061

More Conditions Fewer Conditions

Pressione 30.29 in
Visibilità 7.0 miglia
Nuvole Coperto 2300 ft
Raffreddamento del vento 32 °F
Punto di rugiada 24 °F
Umidità 72%
Piovosità 0.00 in
Spessore del manto nevoso Non disponibile.
Raggi UV 0 fuori da 12
Polline .10 fuori da 12
Qualità dell'aria Non disponibile.
Flu Activity Non disponibile.
METAR KCRW 192154Z 00000KT 7SM OVC023 M01/M06 A3026 RMK AO2 SNE47 PRESRR SLP257 P0000 T10061061

More Conditions Fewer Conditions

10-Day Weather Forecast

Almanac

Astronomia

Dec. 19, 2014 Alba Tramonto
Ora attuale
Crepuscolo civile
Crepuscolo nautico
Crepuscolo astronomico
Luna
Estensione della luce visibile
Lunghezza del giorno
Tomorrow will be .
, % of the Moon is Illuminated

Gli estremi di oggi

State Highs State Lows

Community

WunderPhotos

Upload Photos

1,779,071 foto caricate!

WunderBlogs® & News

Nearby

Qualità dell'aria

  Qualità dell'aria Indice AQ Inquinante
Not available.

Profondità neve

Stazione Profondità Altitudine

Attività sismica

Città  Distanza Mag. Data & Ora
Minimo Magnitudo Mostrato è 2.5.

Temperature delle acque costiere

Località Temperatura

Stazioni meteo nelle vicinanze